Time;durP1;ratioP1;P1;durP2;ratioP2;P2;SDS_P1;SDS_P2;PMS_P1;PMS_P2;Temp;Humidity;BMP_temperature;BMP_pressure;BME280_temperature;BME280_humidity;BME280_pressure;Samples;Min_cycle;Max_cycle;Signal;HPM_P1;HPM_P2
2022/02/24 00:00:09;;;;;;;6.47;4.07;;;8.30;99.90;;;;;;5052473;28;20032;-84
2022/02/24 00:02:35;;;;;;;7.35;3.78;;;8.30;99.90;;;;;;5052108;28;20083;-84
2022/02/24 00:05:01;;;;;;;6.63;3.90;;;8.30;99.90;;;;;;5016095;28;20417;-83
2022/02/24 00:07:26;;;;;;;7.97;4.50;;;8.30;99.90;;;;;;5016002;28;20359;-83
2022/02/24 00:09:52;;;;;;;8.48;4.30;;;8.30;99.90;;;;;;5016669;28;20032;-83
2022/02/24 00:12:19;;;;;;;6.70;4.13;;;8.30;99.90;;;;;;5015973;28;20028;-82
2022/02/24 00:14:45;;;;;;;8.32;4.38;;;8.20;99.90;;;;;;5016610;28;20022;-84
2022/02/24 00:17:12;;;;;;;7.82;4.18;;;8.20;99.90;;;;;;5016434;28;20032;-84
2022/02/24 00:19:37;;;;;;;5.45;3.90;;;8.20;99.90;;;;;;5016390;28;20078;-83
2022/02/24 00:22:04;;;;;;;5.95;3.85;;;8.20;99.90;;;;;;5016365;28;20502;-84
2022/02/24 00:24:30;;;;;;;7.10;4.25;;;8.20;99.90;;;;;;5016497;28;20033;-84
2022/02/24 00:26:56;;;;;;;8.43;4.10;;;8.20;99.90;;;;;;5015743;28;20028;-84
2022/02/24 00:29:22;;;;;;;6.30;3.67;;;8.20;99.90;;;;;;5034164;28;20033;-84
2022/02/24 00:31:47;;;;;;;8.95;4.05;;;8.20;99.90;;;;;;5033755;28;20014;-84
2022/02/24 00:34:15;;;;;;;9.32;4.20;;;8.20;99.90;;;;;;5015964;28;20386;-83
2022/02/24 00:36:41;;;;;;;7.03;3.65;;;8.20;99.90;;;;;;5015921;28;20037;-84
2022/02/24 00:39:06;;;;;;;7.75;3.92;;;8.20;99.90;;;;;;5016671;28;20021;-84
2022/02/24 00:41:32;;;;;;;4.82;3.40;;;8.10;99.90;;;;;;5015963;28;20541;-84
2022/02/24 00:43:58;;;;;;;7.45;4.35;;;8.10;99.90;;;;;;5015474;28;20063;-83
2022/02/24 00:46:23;;;;;;;6.38;4.18;;;8.10;99.90;;;;;;5033167;28;20025;-84
2022/02/24 00:48:49;;;;;;;6.80;3.75;;;8.20;99.90;;;;;;5033098;28;20032;-83
2022/02/24 00:51:15;;;;;;;7.82;4.10;;;8.10;99.90;;;;;;5015419;28;20022;-84
2022/02/24 00:53:41;;;;;;;6.45;3.35;;;8.10;99.90;;;;;;5015429;28;20029;-84
2022/02/24 00:56:11;;;;;;;8.35;3.70;;;8.10;99.90;;;;;;5033085;28;20025;-83
2022/02/24 00:58:37;;;;;;;7.45;3.70;;;8.10;99.90;;;;;;5033164;28;20026;-84
2022/02/24 01:01:03;;;;;;;6.53;3.80;;;8.10;99.90;;;;;;5015424;28;20048;-84
2022/02/24 01:03:29;;;;;;;4.30;3.17;;;8.10;99.90;;;;;;5029533;28;20052;-84
2022/02/24 01:05:55;;;;;;;6.32;3.90;;;8.10;99.90;;;;;;5057112;28;20029;-83
2022/02/24 01:08:21;;;;;;;5.78;3.67;;;8.10;99.90;;;;;;5055689;28;20171;-84
2022/02/24 01:10:47;;;;;;;5.43;3.50;;;8.10;99.90;;;;;;5055764;28;20473;-83
2022/02/24 01:13:13;;;;;;;4.93;3.45;;;8.10;99.90;;;;;;5055683;28;20028;-83
2022/02/24 01:15:41;;;;;;;4.13;3.05;;;8.10;99.90;;;;;;5057184;28;20103;-84
2022/02/24 01:18:08;;;;;;;7.35;3.33;;;8.00;99.90;;;;;;5055613;28;20573;-83
2022/02/24 01:20:34;;;;;;;5.78;3.28;;;8.00;99.90;;;;;;5056259;28;20388;-84
2022/02/24 01:23:00;;;;;;;6.43;3.17;;;8.00;99.90;;;;;;5055301;28;20027;-84
2022/02/24 01:25:26;;;;;;;5.30;3.22;;;8.00;99.90;;;;;;5055337;28;20053;-84
2022/02/24 01:27:52;;;;;;;4.70;3.53;;;8.00;99.90;;;;;;5056509;28;20021;-84
2022/02/24 01:30:19;;;;;;;6.28;3.33;;;8.00;99.90;;;;;;5055297;28;20025;-83
2022/02/24 01:32:45;;;;;;;4.95;3.17;;;8.00;99.90;;;;;;5055252;28;20473;-84
2022/02/24 01:35:11;;;;;;;5.05;3.08;;;8.00;99.90;;;;;;5056470;28;20074;-84
2022/02/24 01:37:36;;;;;;;4.47;3.05;;;8.00;99.90;;;;;;5055242;28;20031;-84
2022/02/24 01:40:04;;;;;;;6.07;3.28;;;8.00;99.90;;;;;;5055230;28;20025;-83
2022/02/24 01:42:30;;;;;;;8.23;3.20;;;8.00;99.90;;;;;;5055437;28;20519;-84
2022/02/24 01:44:56;;;;;;;4.63;3.15;;;8.00;99.90;;;;;;5055379;28;20021;-83
2022/02/24 01:47:22;;;;;;;4.90;2.80;;;8.00;99.90;;;;;;5055269;28;20438;-83
2022/02/24 01:49:48;;;;;;;5.03;3.00;;;7.90;99.90;;;;;;5055260;28;20107;-83
2022/02/24 01:52:14;;;;;;;5.63;2.95;;;7.90;99.90;;;;;;5055208;28;20017;-84
2022/02/24 01:54:41;;;;;;;5.88;3.50;;;7.90;99.90;;;;;;5055327;28;20021;-83
2022/02/24 01:57:08;;;;;;;6.40;2.85;;;7.90;99.90;;;;;;5056177;28;20029;-83
2022/02/24 01:59:35;;;;;;;6.38;3.20;;;7.90;99.90;;;;;;5055283;28;20031;-84
2022/02/24 02:02:00;;;;;;;5.28;3.17;;;7.90;99.90;;;;;;5055409;28;20120;-84
2022/02/24 02:04:26;;;;;;;6.47;3.10;;;7.90;99.90;;;;;;5041051;28;20077;-84
2022/02/24 02:06:54;;;;;;;5.28;2.70;;;7.90;99.90;;;;;;5019101;28;20385;-84
2022/02/24 02:09:20;;;;;;;5.78;3.17;;;7.90;99.90;;;;;;5018809;28;20032;-84
2022/02/24 02:11:47;;;;;;;5.20;3.05;;;7.90;99.90;;;;;;5018834;28;20025;-84
2022/02/24 02:14:13;;;;;;;5.78;2.97;;;7.90;99.90;;;;;;5018555;28;20075;-84
2022/02/24 02:16:47;;;;;;;5.45;3.10;;;7.90;99.90;;;;;;5018285;28;20095;-84
2022/02/24 02:19:13;;;;;;;3.90;2.80;;;7.90;99.90;;;;;;5036010;28;20104;-83
2022/02/24 02:21:38;;;;;;;5.82;2.70;;;7.90;99.90;;;;;;5017919;28;20133;-83
2022/02/24 02:24:05;;;;;;;5.30;2.72;;;7.90;99.90;;;;;;5017930;28;20021;-83
2022/02/24 02:26:31;;;;;;;4.68;2.80;;;7.90;99.90;;;;;;5035397;28;20104;-83
2022/02/24 02:29:01;;;;;;;5.97;3.03;;;7.80;99.90;;;;;;5017866;28;20022;-84
2022/02/24 02:31:27;;;;;;;4.65;2.30;;;7.80;99.90;;;;;;5017772;28;20032;-83
2022/02/24 02:34:18;;;;;;;4.43;3.00;;;7.80;99.90;;;;;;5017772;28;20056;-84
2022/02/24 02:36:45;;;;;;;4.32;2.80;;;7.80;99.90;;;;;;5017935;28;20029;-84
2022/02/24 02:39:13;;;;;;;4.28;2.47;;;7.80;99.90;;;;;;5035607;28;20025;-83
2022/02/24 02:41:41;;;;;;;4.40;2.58;;;7.80;99.90;;;;;;5017618;28;20405;-84
2022/02/24 02:44:08;;;;;;;4.72;2.60;;;7.80;99.90;;;;;;5035388;28;20032;-84
2022/02/24 02:46:34;;;;;;;3.20;2.50;;;7.80;99.90;;;;;;5017472;28;20056;-84
2022/02/24 02:49:00;;;;;;;5.05;2.70;;;7.80;99.90;;;;;;5017734;28;20477;-84
2022/02/24 02:51:26;;;;;;;3.88;2.25;;;7.80;99.90;;;;;;5017739;28;20076;-84
2022/02/24 02:53:52;;;;;;;4.05;2.42;;;7.80;99.90;;;;;;5017622;28;20426;-83
2022/02/24 02:56:17;;;;;;;8.35;2.58;;;7.80;99.90;;;;;;5017341;28;20030;-84
2022/02/24 02:58:43;;;;;;;4.00;2.63;;;7.80;99.90;;;;;;5017346;28;20420;-83
2022/02/24 03:01:09;;;;;;;4.50;2.42;;;7.80;99.90;;;;;;5017371;28;20080;-84
2022/02/24 03:03:35;;;;;;;3.97;2.50;;;7.80;99.90;;;;;;5030357;28;20040;-83
2022/02/24 03:06:01;;;;;;;4.60;2.63;;;7.80;99.90;;;;;;5053683;28;20031;-83
2022/02/24 03:08:26;;;;;;;6.03;2.55;;;7.80;99.90;;;;;;5053520;28;20032;-83
2022/02/24 03:10:52;;;;;;;5.65;2.60;;;7.80;99.90;;;;;;5053553;28;20029;-83
2022/02/24 03:13:19;;;;;;;4.00;2.30;;;7.80;99.90;;;;;;5054891;28;20481;-84
2022/02/24 03:15:46;;;;;;;5.35;2.80;;;7.80;99.90;;;;;;5053303;28;20108;-84
2022/02/24 03:18:12;;;;;;;5.32;2.63;;;7.70;99.90;;;;;;5053483;28;20029;-84
2022/02/24 03:20:38;;;;;;;4.90;2.33;;;7.70;99.90;;;;;;5053314;28;20063;-84
2022/02/24 03:23:06;;;;;;;3.40;2.40;;;7.70;99.90;;;;;;5053294;28;20029;-83
2022/02/24 03:25:32;;;;;;;3.65;2.60;;;7.70;99.90;;;;;;5052651;28;20155;-83
2022/02/24 03:27:58;;;;;;;4.82;2.65;;;7.80;99.90;;;;;;5054406;28;20540;-83
2022/02/24 03:30:25;;;;;;;3.83;2.50;;;7.70;99.90;;;;;;5053017;28;20167;-84
2022/02/24 03:32:51;;;;;;;5.13;2.38;;;7.70;99.90;;;;;;5054558;28;20500;-83
2022/02/24 03:35:19;;;;;;;6.90;2.53;;;7.70;99.90;;;;;;5053107;28;20021;-83
2022/02/24 03:37:45;;;;;;;3.95;2.20;;;7.70;99.90;;;;;;5054307;28;20017;-84
2022/02/24 03:40:12;;;;;;;3.63;2.45;;;7.70;99.90;;;;;;5052999;28;20052;-83
2022/02/24 03:42:38;;;;;;;4.28;2.25;;;7.70;99.90;;;;;;5052882;28;20502;-83
2022/02/24 03:45:04;;;;;;;4.60;2.65;;;7.70;99.90;;;;;;5052825;28;20025;-83
2022/02/24 03:47:29;;;;;;;3.47;2.17;;;7.70;99.90;;;;;;5052830;28;20428;-83
2022/02/24 03:49:55;;;;;;;4.70;2.20;;;7.70;99.90;;;;;;5052676;28;20029;-84
2022/02/24 03:52:21;;;;;;;3.78;2.20;;;7.70;99.90;;;;;;5052473;28;20433;-83
2022/02/24 03:54:47;;;;;;;3.40;2.38;;;7.70;99.90;;;;;;5052527;28;20083;-84
2022/02/24 03:57:14;;;;;;;4.18;2.10;;;7.70;99.90;;;;;;5053856;28;20056;-84
2022/02/24 03:59:41;;;;;;;2.88;2.05;;;7.70;99.90;;;;;;5052569;28;20025;-83
2022/02/24 04:02:07;;;;;;;2.67;2.10;;;7.70;99.90;;;;;;5053725;28;20032;-83
2022/02/24 04:04:33;;;;;;;5.03;2.60;;;7.60;99.90;;;;;;5052237;28;20121;-84
2022/02/24 04:06:59;;;;;;;4.22;2.08;;;7.70;99.90;;;;;;5052396;28;20037;-83
2022/02/24 04:09:25;;;;;;;2.80;2.00;;;7.60;99.90;;;;;;5052354;28;20028;-83
2022/02/24 04:11:51;;;;;;;5.18;2.30;;;7.60;99.90;;;;;;5052338;28;20025;-83
2022/02/24 04:14:17;;;;;;;3.58;2.30;;;7.60;99.90;;;;;;5052252;28;20028;-83
2022/02/24 04:16:43;;;;;;;4.05;2.40;;;7.60;99.90;;;;;;5052177;28;20527;-83
2022/02/24 04:19:08;;;;;;;3.55;2.10;;;7.60;99.90;;;;;;5053098;28;20035;-84
2022/02/24 04:21:35;;;;;;;4.88;2.00;;;7.60;99.90;;;;;;5053436;28;20476;-83
2022/02/24 04:24:01;;;;;;;4.45;2.42;;;7.60;99.90;;;;;;5052232;28;20048;-84
2022/02/24 04:26:27;;;;;;;3.55;2.20;;;7.60;99.90;;;;;;5053356;28;20100;-83
2022/02/24 04:28:53;;;;;;;3.25;2.10;;;7.60;99.90;;;;;;5052116;28;20116;-83
2022/02/24 04:31:18;;;;;;;5.18;2.33;;;7.60;99.90;;;;;;5052507;28;20025;-84
2022/02/24 04:33:44;;;;;;;3.83;2.22;;;7.60;99.90;;;;;;5052031;28;20021;-84
2022/02/24 04:36:10;;;;;;;3.03;2.25;;;7.60;99.90;;;;;;5051856;28;20108;-84
2022/02/24 04:38:35;;;;;;;3.45;2.40;;;7.60;99.90;;;;;;5051249;28;20119;-83
2022/02/24 04:41:01;;;;;;;3.78;2.42;;;7.50;99.90;;;;;;5051902;28;20112;-83
2022/02/24 04:43:27;;;;;;;4.18;2.25;;;7.50;99.90;;;;;;5052082;28;20029;-83
2022/02/24 04:45:53;;;;;;;3.78;2.22;;;7.50;99.90;;;;;;5051913;28;20025;-83
2022/02/24 04:48:20;;;;;;;5.32;2.50;;;7.60;99.90;;;;;;5053100;28;20464;-83
2022/02/24 04:50:46;;;;;;;3.50;2.47;;;7.50;99.90;;;;;;5051928;28;20393;-83
2022/02/24 04:53:12;;;;;;;3.03;2.10;;;7.50;99.90;;;;;;5051770;28;20021;-83
2022/02/24 04:55:38;;;;;;;3.42;2.22;;;7.50;99.90;;;;;;5051833;28;20028;-84
2022/02/24 04:58:04;;;;;;;3.03;2.10;;;7.50;99.90;;;;;;5051801;28;20057;-84
2022/02/24 05:00:30;;;;;;;2.60;2.10;;;7.50;99.90;;;;;;5053078;28;20025;-84
2022/02/24 05:02:55;;;;;;;3.13;2.20;;;7.50;99.90;;;;;;5050754;28;20029;-84
2022/02/24 05:05:21;;;;;;;6.25;2.45;;;7.50;99.90;;;;;;5015431;28;20040;-83
2022/02/24 05:07:47;;;;;;;3.28;2.20;;;7.50;99.90;;;;;;5015306;28;20141;-83
2022/02/24 05:10:12;;;;;;;5.32;2.63;;;7.50;99.90;;;;;;5015290;28;20034;-83
2022/02/24 05:12:38;;;;;;;3.38;2.33;;;7.50;99.90;;;;;;5015337;28;20021;-83
2022/02/24 05:15:04;;;;;;;3.80;2.38;;;7.50;99.90;;;;;;5015305;28;20489;-83
2022/02/24 05:17:30;;;;;;;3.40;2.38;;;7.50;99.90;;;;;;5015255;28;20037;-83
2022/02/24 05:19:56;;;;;;;2.97;2.10;;;7.50;99.90;;;;;;5015303;28;20029;-83
2022/02/24 05:22:21;;;;;;;3.85;2.33;;;7.50;99.90;;;;;;5015318;28;20036;-83
2022/02/24 05:24:47;;;;;;;3.70;2.28;;;7.50;99.90;;;;;;5015237;28;20025;-84
2022/02/24 05:27:12;;;;;;;3.28;2.10;;;7.50;99.90;;;;;;5015112;28;20027;-83
2022/02/24 05:29:38;;;;;;;3.78;2.40;;;7.40;99.90;;;;;;5015146;28;20026;-83
2022/02/24 05:32:05;;;;;;;3.65;2.17;;;7.40;99.90;;;;;;5015147;28;20025;-83
2022/02/24 05:34:30;;;;;;;4.70;2.83;;;7.40;99.90;;;;;;5016250;28;20488;-83
2022/02/24 05:36:56;;;;;;;4.43;2.60;;;7.40;99.90;;;;;;5015127;28;20025;-84
2022/02/24 05:39:21;;;;;;;6.00;2.65;;;7.40;99.90;;;;;;5015149;28;20084;-83
2022/02/24 05:41:47;;;;;;;6.53;2.85;;;7.40;99.90;;;;;;5015896;28;20116;-83
2022/02/24 05:44:13;;;;;;;3.80;2.60;;;7.40;99.90;;;;;;5032696;28;20027;-84
2022/02/24 05:46:39;;;;;;;4.55;2.53;;;7.40;99.90;;;;;;5014923;28;20456;-83
2022/02/24 05:49:04;;;;;;;6.07;2.80;;;7.40;99.90;;;;;;5016559;28;20021;-83
2022/02/24 05:51:30;;;;;;;5.13;3.10;;;7.40;99.90;;;;;;5018654;28;20022;-84
2022/02/24 05:53:56;;;;;;;6.10;3.20;;;7.40;99.90;;;;;;5036254;28;20029;-84
2022/02/24 05:56:21;;;;;;;6.07;3.45;;;7.40;99.90;;;;;;5037116;28;20021;-84
2022/02/24 05:58:47;;;;;;;6.05;3.38;;;7.40;99.90;;;;;;5036137;28;20029;-83
2022/02/24 06:01:13;;;;;;;5.93;3.58;;;7.40;99.90;;;;;;5036145;28;20497;-83
2022/02/24 06:03:39;;;;;;;6.65;3.47;;;7.40;99.90;;;;;;5028558;28;20061;-83
2022/02/24 06:06:04;;;;;;;8.02;3.28;;;7.40;99.90;;;;;;5054936;28;20031;-83
2022/02/24 06:08:30;;;;;;;5.78;3.22;;;7.40;99.90;;;;;;5055827;28;20455;-83
2022/02/24 06:10:56;;;;;;;5.65;3.50;;;7.40;99.90;;;;;;5054621;28;20018;-83
2022/02/24 06:13:22;;;;;;;7.82;3.67;;;7.40;99.90;;;;;;5054609;28;20028;-83
2022/02/24 06:15:47;;;;;;;5.40;3.63;;;7.40;99.90;;;;;;5054676;28;20025;-83
2022/02/24 06:18:18;;;;;;;6.63;3.75;;;7.30;99.90;;;;;;5055143;28;20021;-83
2022/02/24 06:20:46;;;;;;;6.30;3.60;;;7.30;99.90;;;;;;5054517;28;20032;-83
2022/02/24 06:23:12;;;;;;;7.35;3.92;;;7.30;99.90;;;;;;5055683;28;20021;-83
2022/02/24 06:25:37;;;;;;;5.82;3.63;;;7.30;99.90;;;;;;5054377;28;20025;-83
2022/02/24 06:28:04;;;;;;;7.93;3.67;;;7.30;99.90;;;;;;5054258;28;20033;-83
2022/02/24 06:30:29;;;;;;;4.85;3.33;;;7.30;99.90;;;;;;5054351;28;20506;-83
2022/02/24 06:32:55;;;;;;;7.65;3.83;;;7.30;99.90;;;;;;5054227;28;20021;-83
2022/02/24 06:35:21;;;;;;;7.25;3.55;;;7.30;99.90;;;;;;5054441;28;20032;-83
2022/02/24 06:37:47;;;;;;;7.32;3.95;;;7.30;99.90;;;;;;5054138;28;20060;-83
2022/02/24 06:40:13;;;;;;;5.90;3.50;;;7.30;99.90;;;;;;5054087;28;20186;-84
2022/02/24 06:42:40;;;;;;;6.22;3.97;;;7.30;99.90;;;;;;5054059;28;20427;-83
2022/02/24 06:45:07;;;;;;;9.30;4.00;;;7.30;99.90;;;;;;5054001;28;20021;-83
2022/02/24 06:47:33;;;;;;;6.18;3.60;;;7.30;99.90;;;;;;5053862;28;20033;-83
2022/02/24 06:49:58;;;;;;;6.03;3.85;;;7.30;99.90;;;;;;5053858;28;20025;-83
2022/02/24 06:52:24;;;;;;;7.00;3.65;;;7.30;99.90;;;;;;5053799;28;20028;-83
2022/02/24 06:54:50;;;;;;;5.97;3.90;;;7.30;99.90;;;;;;5054107;28;20025;-83
2022/02/24 06:57:16;;;;;;;6.82;4.03;;;7.30;99.90;;;;;;5053805;28;20029;-83
2022/02/24 06:59:42;;;;;;;6.93;4.00;;;7.30;99.90;;;;;;5053936;28;20366;-83
2022/02/24 07:02:08;;;;;;;6.88;4.13;;;7.30;99.90;;;;;;5053320;28;20032;-84
2022/02/24 07:04:34;;;;;;;7.05;4.03;;;7.30;99.90;;;;;;5053482;28;20492;-83
2022/02/24 07:07:01;;;;;;;6.00;3.45;;;7.30;99.90;;;;;;5053469;28;20060;-83
2022/02/24 07:09:27;;;;;;;6.25;3.65;;;7.30;99.90;;;;;;5053547;28;20059;-83
2022/02/24 07:11:53;;;;;;;8.68;3.60;;;7.40;99.90;;;;;;5053480;28;20025;-83
2022/02/24 07:14:20;;;;;;;6.38;3.70;;;7.40;99.90;;;;;;5053367;28;20021;-84
2022/02/24 07:16:46;;;;;;;5.45;3.47;;;7.40;99.90;;;;;;5053611;28;20035;-83
2022/02/24 07:19:12;;;;;;;8.07;3.95;;;7.40;99.90;;;;;;5054615;28;20025;-83
2022/02/24 07:21:38;;;;;;;7.40;3.97;;;7.50;99.90;;;;;;5053557;28;20102;-83
2022/02/24 07:24:04;;;;;;;5.20;3.83;;;7.50;99.90;;;;;;5053244;28;20067;-83
2022/02/24 07:26:30;;;;;;;7.00;4.10;;;7.60;99.90;;;;;;5053054;28;20408;-83
2022/02/24 07:28:56;;;;;;;5.72;4.25;;;7.60;99.90;;;;;;5054393;28;20096;-83
2022/02/24 07:31:21;;;;;;;7.63;4.15;;;7.60;99.90;;;;;;5053645;28;20029;-83
2022/02/24 07:33:48;;;;;;;9.70;4.35;;;7.70;99.90;;;;;;5053533;28;20029;-83
2022/02/24 07:36:14;;;;;;;8.18;3.80;;;7.70;99.90;;;;;;5054245;28;20021;-83
2022/02/24 07:38:40;;;;;;;7.03;4.30;;;7.90;99.90;;;;;;5054186;28;20526;-83
2022/02/24 07:41:06;;;;;;;8.07;4.93;;;8.20;99.90;;;;;;5052871;28;20464;-83
2022/02/24 07:43:32;;;;;;;8.85;4.95;;;8.20;99.90;;;;;;5052857;28;20116;-83
2022/02/24 07:45:58;;;;;;;7.65;4.43;;;8.20;99.90;;;;;;5054073;28;20547;-83
2022/02/24 07:48:26;;;;;;;7.82;4.35;;;8.20;99.90;;;;;;5052669;28;20021;-83
2022/02/24 07:50:52;;;;;;;9.70;4.82;;;8.30;99.90;;;;;;5053992;28;20017;-84
2022/02/24 07:53:18;;;;;;;7.75;4.90;;;8.40;99.90;;;;;;5052721;28;20111;-83
2022/02/24 07:55:44;;;;;;;7.07;4.35;;;8.60;99.90;;;;;;5052652;28;20021;-83
2022/02/24 07:58:10;;;;;;;7.20;4.15;;;8.70;99.90;;;;;;5052531;28;20485;-83
2022/02/24 08:00:36;;;;;;;6.43;4.10;;;8.70;99.90;;;;;;5052529;28;20025;-83
2022/02/24 08:03:02;;;;;;;7.43;4.07;;;8.90;99.90;;;;;;5050654;28;20025;-84
2022/02/24 08:05:28;;;;;;;7.72;4.45;;;9.00;99.90;;;;;;5016139;28;20044;-83
2022/02/24 08:07:54;;;;;;;7.68;4.07;;;9.10;99.90;;;;;;5033629;28;20033;-83
2022/02/24 08:10:20;;;;;;;5.85;3.88;;;9.10;99.90;;;;;;5015947;28;20389;-83
2022/02/24 08:12:47;;;;;;;6.88;4.30;;;9.20;99.90;;;;;;5015643;28;20067;-84
2022/02/24 08:15:14;;;;;;;7.65;4.32;;;9.30;99.90;;;;;;5015838;28;20049;-84
2022/02/24 08:17:40;;;;;;;6.95;4.15;;;9.40;99.90;;;;;;5015856;28;20033;-84
2022/02/24 08:20:08;;;;;;;8.77;4.10;;;9.50;99.90;;;;;;5015729;28;20036;-83
2022/02/24 08:22:34;;;;;;;9.05;4.05;;;9.50;99.90;;;;;;5016226;28;20025;-83
2022/02/24 08:25:00;;;;;;;5.90;4.00;;;9.60;99.90;;;;;;5015723;28;20477;-84
2022/02/24 08:27:26;;;;;;;6.85;3.50;;;9.70;99.90;;;;;;5015957;28;20025;-83
2022/02/24 08:29:51;;;;;;;7.10;3.67;;;9.60;99.90;;;;;;5015692;28;20025;-83
2022/02/24 08:32:17;;;;;;;7.03;3.95;;;9.60;99.90;;;;;;5015679;28;20018;-83
2022/02/24 08:34:43;;;;;;;10.18;3.88;;;9.60;99.90;;;;;;5015663;28;20397;-83
2022/02/24 08:37:08;;;;;;;6.30;3.95;;;9.50;99.90;;;;;;5015715;28;20040;-83
2022/02/24 08:39:34;;;;;;;6.80;3.97;;;9.50;99.90;;;;;;5033243;28;20483;-83
2022/02/24 08:42:00;;;;;;;6.32;3.60;;;9.50;99.90;;;;;;5015570;28;20065;-83
2022/02/24 08:44:25;;;;;;;7.72;3.85;;;9.50;99.90;;;;;;5033195;28;20026;-82
2022/02/24 08:46:51;;;;;;;5.63;3.85;;;9.60;99.90;;;;;;5033124;28;20022;-82
2022/02/24 08:49:17;;;;;;;6.72;3.78;;;9.70;99.90;;;;;;5015338;28;20049;-82
2022/02/24 08:51:42;;;;;;;6.05;3.55;;;9.80;99.90;;;;;;5015413;28;20112;-82
2022/02/24 08:54:08;;;;;;;4.90;3.10;;;10.00;99.90;;;;;;5015418;28;20018;-83
2022/02/24 08:56:34;;;;;;;4.40;3.20;;;10.10;99.90;;;;;;5015683;28;20029;-83
2022/02/24 08:59:00;;;;;;;4.68;3.20;;;10.20;99.90;;;;;;5015403;28;20036;-83
2022/02/24 09:01:25;;;;;;;5.30;3.60;;;10.30;99.90;;;;;;5015314;28;20373;-83
2022/02/24 09:03:51;;;;;;;5.65;3.15;;;10.30;99.90;;;;;;5028627;28;20136;-83
2022/02/24 09:06:17;;;;;;;6.70;3.47;;;10.40;99.90;;;;;;5051949;28;20499;-83
2022/02/24 09:08:44;;;;;;;7.63;3.58;;;10.30;99.90;;;;;;5051767;28;20373;-83
2022/02/24 09:11:10;;;;;;;5.60;3.17;;;10.10;99.90;;;;;;5051836;28;20029;-83
2022/02/24 09:13:39;;;;;;;6.30;3.65;;;10.00;99.90;;;;;;5051951;28;20515;-83
2022/02/24 09:16:05;;;;;;;6.47;3.05;;;9.80;99.90;;;;;;5051979;28;20025;-83
2022/02/24 09:18:31;;;;;;;5.60;3.40;;;9.70;99.90;;;;;;5051805;28;20060;-83
2022/02/24 09:20:56;;;;;;;5.45;3.42;;;9.50;99.90;;;;;;5052909;28;20448;-83
2022/02/24 09:23:22;;;;;;;5.75;3.33;;;9.40;99.90;;;;;;5053624;28;20025;-83
2022/02/24 09:25:48;;;;;;;6.43;3.50;;;9.20;99.90;;;;;;5055557;28;20159;-83
2022/02/24 09:28:15;;;;;;;5.30;3.00;;;9.10;99.90;;;;;;5055575;28;20024;-84
2022/02/24 09:30:41;;;;;;;4.82;3.15;;;9.10;99.90;;;;;;5055378;28;20032;-82
2022/02/24 09:33:08;;;;;;;6.88;3.38;;;9.00;99.90;;;;;;5055572;28;20086;-86
2022/02/24 09:35:34;;;;;;;7.00;3.53;;;8.90;99.90;;;;;;5056233;28;20376;-83
2022/02/24 09:38:00;;;;;;;5.63;3.47;;;8.90;99.90;;;;;;5055326;28;20040;-83
2022/02/24 09:40:30;;;;;;;8.50;3.42;;;8.90;99.90;;;;;;5055240;28;20079;-83
2022/02/24 09:42:56;;;;;;;5.43;3.28;;;8.80;99.90;;;;;;5055757;28;20029;-83
2022/02/24 09:45:21;;;;;;;6.28;3.10;;;8.80;99.90;;;;;;5056336;28;20036;-83
2022/02/24 09:47:51;;;;;;;7.47;3.17;;;8.80;99.90;;;;;;5055579;28;20027;-83
2022/02/24 09:50:16;;;;;;;4.00;3.10;;;8.70;99.90;;;;;;5055652;28;20067;-83
2022/02/24 09:52:42;;;;;;;7.38;3.08;;;8.80;99.90;;;;;;5055081;28;20020;-83
2022/02/24 09:55:10;;;;;;;6.35;3.08;;;8.90;99.90;;;;;;5055302;28;20389;-84
2022/02/24 09:57:36;;;;;;;4.05;2.80;;;9.10;99.90;;;;;;5054830;28;20033;-83
2022/02/24 10:00:04;;;;;;;6.32;3.05;;;9.20;99.90;;;;;;5055251;28;20171;-84
2022/02/24 10:02:30;;;;;;;5.85;3.30;;;9.40;99.90;;;;;;5056775;28;20052;-85
2022/02/24 10:05:22;;;;;;;8.88;3.00;;;9.40;99.90;;;;;;5054993;28;20049;-82
2022/02/24 10:07:49;;;;;;;5.28;2.83;;;9.40;99.90;;;;;;5052852;28;20048;-83
2022/02/24 10:10:22;;;;;;;9.02;3.20;;;9.40;99.90;;;;;;5056544;28;20024;-84
2022/02/24 10:13:08;;;;;;;5.38;2.95;;;9.50;99.90;;;;;;5055114;28;20092;-84
2022/02/24 10:15:42;;;;;;;7.25;3.42;;;9.60;99.90;;;;;;5056151;28;20384;-83
2022/02/24 10:18:15;;;;;;;5.57;2.60;;;9.70;99.90;;;;;;5055777;28;20392;-83
2022/02/24 10:20:44;;;;;;;7.95;2.65;;;9.80;99.90;;;;;;5054416;28;20025;-83
2022/02/24 10:23:11;;;;;;;6.45;2.53;;;10.00;99.90;;;;;;5054216;28;20396;-83
2022/02/24 10:25:43;;;;;;;6.47;2.85;;;10.00;99.90;;;;;;5055105;28;20049;-83
2022/02/24 10:28:31;;;;;;;3.42;2.25;;;10.00;99.90;;;;;;5055042;28;20365;-83
2022/02/24 10:31:02;;;;;;;6.10;2.75;;;9.90;99.90;;;;;;5055455;28;20081;-83
2022/02/24 10:33:29;;;;;;;5.78;2.63;;;9.90;99.90;;;;;;5054735;28;20021;-83
2022/02/24 10:36:07;;;;;;;7.28;2.15;;;9.90;99.90;;;;;;5054021;28;20028;-84
2022/02/24 10:38:33;;;;;;;3.85;2.38;;;9.80;99.90;;;;;;5055615;28;20033;-82
2022/02/24 10:40:58;;;;;;;3.88;2.40;;;9.70;99.90;;;;;;5055248;28;20032;-84
2022/02/24 10:43:24;;;;;;;5.97;2.38;;;9.80;99.90;;;;;;5053892;28;20122;-84
2022/02/24 10:46:13;;;;;;;4.28;2.20;;;9.80;99.90;;;;;;5055149;28;20389;-82
2022/02/24 10:48:57;;;;;;;4.78;2.25;;;9.70;99.90;;;;;;5053842;28;20425;-83
2022/02/24 10:51:31;;;;;;;5.95;2.40;;;9.70;99.90;;;;;;5053824;28;20389;-83
2022/02/24 10:54:06;;;;;;;5.13;2.08;;;9.70;99.90;;;;;;5053796;28;20021;-84
2022/02/24 10:56:37;;;;;;;5.35;2.22;;;9.70;99.90;;;;;;5054213;28;20481;-83
2022/02/24 10:59:03;;;;;;;4.45;1.92;;;9.80;99.90;;;;;;5053867;28;20476;-84
2022/02/24 11:01:30;;;;;;;3.10;1.70;;;9.90;99.90;;;;;;5053822;28;20055;-86
2022/02/24 11:04:01;;;;;;;4.18;2.00;;;9.90;99.90;;;;;;5053580;28;20049;-85
2022/02/24 11:06:32;;;;;;;3.70;1.70;;;9.90;99.90;;;;;;5053696;28;20029;-83
2022/02/24 11:08:58;;;;;;;8.00;1.90;;;9.90;99.90;;;;;;5053627;28;20025;-83
2022/02/24 11:11:26;;;;;;;3.72;1.63;;;10.00;99.90;;;;;;5054722;28;20028;-83
2022/02/24 11:13:54;;;;;;;3.03;1.70;;;10.10;99.90;;;;;;5053610;28;20028;-83
2022/02/24 11:16:20;;;;;;;4.53;1.58;;;10.10;99.90;;;;;;5053462;28;20028;-83
2022/02/24 11:18:46;;;;;;;4.63;1.50;;;10.20;99.90;;;;;;5053298;28;20033;-85
2022/02/24 11:21:16;;;;;;;5.32;1.40;;;10.10;99.90;;;;;;5053276;28;20374;-83
2022/02/24 11:23:43;;;;;;;2.47;1.40;;;10.20;99.90;;;;;;5053224;28;20055;-85
2022/02/24 11:26:21;;;;;;;4.20;1.73;;;10.20;99.90;;;;;;5053624;28;20056;-84
2022/02/24 11:28:58;;;;;;;3.60;1.35;;;10.20;99.90;;;;;;5053407;28;20025;-83
2022/02/24 11:31:30;;;;;;;3.70;1.50;;;10.10;99.90;;;;;;5053131;28;20043;-84
2022/02/24 11:33:56;;;;;;;4.50;1.35;;;10.10;99.90;;;;;;5053109;28;20021;-86
2022/02/24 11:36:22;;;;;;;6.70;1.75;;;10.10;99.90;;;;;;5052883;28;20032;-84
2022/02/24 11:39:17;;;;;;;3.95;1.52;;;10.00;99.90;;;;;;5053068;28;20039;-85
2022/02/24 11:41:45;;;;;;;;;;;10.00;99.90;;;;;;5053427;28;20017;-84
2022/02/24 11:44:35;;;;;;;5.57;1.42;;;9.90;99.90;;;;;;5052818;28;20351;-84
2022/02/24 11:47:03;;;;;;;4.47;1.60;;;9.80;99.90;;;;;;5052169;28;20025;-83
2022/02/24 11:49:54;;;;;;;6.13;1.92;;;9.80;99.90;;;;;;5053999;28;20027;-82
2022/02/24 11:52:21;;;;;;;3.05;1.40;;;9.70;99.90;;;;;;5052634;28;20515;-84
2022/02/24 11:54:47;;;;;;;3.75;1.45;;;9.70;99.90;;;;;;5052579;28;20389;-83
2022/02/24 11:57:33;;;;;;;4.55;1.40;;;9.70;99.90;;;;;;5053887;28;20025;-84
2022/02/24 12:00:09;;;;;;;3.95;1.45;;;9.60;99.90;;;;;;5052538;28;20378;-83
2022/02/24 12:02:43;;;;;;;4.15;1.60;;;9.60;99.90;;;;;;5052643;28;20028;-82
2022/02/24 12:05:22;;;;;;;3.80;1.50;;;9.50;99.90;;;;;;5034641;28;20049;-82
2022/02/24 12:08:01;;;;;;;4.03;1.45;;;9.50;99.90;;;;;;5016320;28;20079;-83
2022/02/24 12:10:47;;;;;;;5.40;1.50;;;9.40;99.90;;;;;;5016028;28;20030;-82
2022/02/24 12:13:23;;;;;;;3.28;1.13;;;9.40;99.90;;;;;;5016287;28;20017;-83
2022/02/24 12:16:12;;;;;;;4.72;1.27;;;9.30;99.90;;;;;;5015881;28;20540;-82
2022/02/24 12:18:39;;;;;;;2.95;1.38;;;9.30;99.90;;;;;;5016915;28;20033;-84
2022/02/24 12:21:36;;;;;;;4.47;1.50;;;9.30;99.90;;;;;;5033536;28;20125;-82
2022/02/24 12:24:11;;;;;;;3.65;1.50;;;9.20;99.90;;;;;;5015794;28;20017;-82
2022/02/24 12:26:39;;;;;;;;;;;9.20;99.90;;;;;;5017031;28;20492;-83
2022/02/24 12:29:26;;;;;;;4.07;1.15;;;9.10;99.90;;;;;;5015699;28;19908;-83
2022/02/24 12:32:00;;;;;;;6.97;1.52;;;9.10;99.90;;;;;;5015794;28;20071;-83
2022/02/24 12:34:29;;;;;;;5.13;1.27;;;9.10;99.90;;;;;;5015996;28;20028;-83
2022/02/24 12:37:10;;;;;;;4.78;1.52;;;9.00;99.90;;;;;;5015601;28;20025;-82
2022/02/24 12:39:37;;;;;;;4.05;1.40;;;9.00;99.90;;;;;;5015584;28;20032;-83
2022/02/24 12:42:05;;;;;;;3.08;1.20;;;9.00;99.90;;;;;;5015633;28;20091;-82
2022/02/24 12:44:31;;;;;;;4.65;1.60;;;9.00;99.90;;;;;;5015505;28;20090;-82
2022/02/24 12:46:58;;;;;;;5.28;1.58;;;9.00;99.90;;;;;;5015519;28;20018;-84
2022/02/24 12:49:24;;;;;;;2.03;1.10;;;9.00;99.90;;;;;;5015485;28;20018;-83
2022/02/24 12:51:56;;;;;;;3.17;1.25;;;9.00;99.90;;;;;;5015907;28;20026;-83
2022/02/24 12:54:22;;;;;;;4.45;1.38;;;9.00;99.90;;;;;;5033395;28;20381;-83
2022/02/24 12:56:48;;;;;;;4.40;1.50;;;9.00;99.90;;;;;;5033091;28;20028;-83
2022/02/24 12:59:15;;;;;;;4.97;1.33;;;9.00;99.90;;;;;;5017456;28;20037;-82